Kalama, WA (98625)

11:35 AM PDT on August 30, 2015 (GMT -0700)
Docmarv Kalama Weather | | Change Station
CLOSE
Current Station
Personal Weather Station
Location: Kalama, WA
Elevation: 855 ft
Nearby Weather Stations

Elev 855 ft 45.98 °N, 122.79 °W | Updated 2 seconds ago

Overcast
Overcast
59.1 °F
Feels Like 59.1 °F
N
8.1
Wind Variable Wind from SE
Gusts 8.1 mph

Today
High -- | Low -- °F
--% Chance of Precip.
Yesterday
High -- | Low -- °F
Precip. -- in
6:29 AM 7:53 PM
Full, 98% visible
Pressure 29.97 in
Visibility 10.0 miles
Clouds Few 3100 ft
Scattered Clouds 3800 ft
Overcast 6500 ft
Dew Point 55 °F
Humidity 87%
Rainfall 0.38 in
Snow Depth Not available.
UV 2 out of 12
Pollen .50 out of 12
Air Quality Not available.
Flu Activity Not available.
METAR KSPB 301753Z AUTO VRB04KT 10SM FEW031 SCT038 OVC065 17/14 A2997 RMK AO2 SLP149 60008 T01720139 10178 20150 51024
Pressure 29.97 in
Visibility 10.0 miles
Clouds Few 3100 ft
Scattered Clouds 3800 ft
Overcast 6500 ft
Dew Point 55 °F
Humidity 87%
Rainfall 0.38 in
Snow Depth Not available.
UV 2 out of 12
Pollen .50 out of 12
Air Quality Not available.
Flu Activity Not available.
METAR KSPB 301753Z AUTO VRB04KT 10SM FEW031 SCT038 OVC065 17/14 A2997 RMK AO2 SLP149 60008 T01720139 10178 20150 51024

10-Day Weather Forecast

×

Almanac

Astronomy

Aug. 30, 2015 Rise Set
Actual Time
Civil Twilight
Nautical Twilight
Astronomical Twilight
Moon
Length of Visible Light
Length of Day
Tomorrow will be .
, % of the Moon is Illuminated

Today's Extremes

State Highs State Lows

Community

WunderPhotos

Upload Photos

1,851,031 photos uploaded!

WunderBlogs® & News

Nearby

Air Quality

  Air Quality AQ Index Pollutant
Not available.

Snow Depth

Station Depth Elevation

Earthquake Activity

City Distance Mag. Time & Date
Minimum magnitude displayed is 2.5.

Coastal Water Temperatures

Place Temperature

Stations

Nearby Weather Stations

Station Location Temp. Windchill Dew Point Humidity Wind Precip. Elev Updated Type